Terminal Aerodrome Forecast
Issued by NWS Charleston, WV

Home | Current Version | Previous Version | Text Only | Print | Product List | Glossary On
Versions: 1 2 3 4 5 6 7 8 9 10 11 12 13 14 15 16 17 18 19 20 21 22 23 24 25
000
FTUS41 KRLX 271700
TAFEKN
TAF
KEKN 271729Z 2718/2818 28009KT P6SM OVC030
     FM271900 28009KT P6SM OVC035
     FM272300 31006KT 4SM -SHRASN BR OVC025
     FM280000 31006KT 4SM -SHSN BR OVC025
     FM280500 32006KT P6SM -SHSN BKN025
     FM281000 32005KT P6SM BKN035
     FM281600 31008KT P6SM BKN035=

USA.gov is the U.S. government's official web portal to all federal, state and local government web resources and services.